Terminal Aerodrome Forecast
Issued by NWS

Home | Current Version | Previous Version | Text Only | Print | Product List | Glossary On
Versions: 1 2 3 4 5 6 7 8 9 10 11 12 13 14 15 16 17 18 19 20 21
957
FTUS46 KSEW 200538
TAFPAE
TAF
KPAE 200538Z 2006/2106 14012KT P6SM VCSH BKN045 OVC080
     FM201400 11007KT P6SM SCT050 BKN100
     FM202100 15008KT P6SM -RA OVC050
     FM210300 16009KT P6SM SCT050 BKN080=

USA.gov is the U.S. government's official web portal to all federal, state and local government web resources and services.